Time;durP1;ratioP1;P1;durP2;ratioP2;P2;SDS_P1;SDS_P2;PMS_P1;PMS_P2;Temp;Humidity;BMP_temperature;BMP_pressure;BME280_temperature;BME280_humidity;BME280_pressure;Samples;Min_cycle;Max_cycle;Signal;HPM_P1;HPM_P2
2022/06/09 00:00:11;;;;;;;1.50;1.17;;;19.50;65.60;;;;;;5060631;27;21128;-48
2022/06/09 00:02:55;;;;;;;3.67;1.17;;;19.50;65.60;;;;;;5072024;27;20554;-48
2022/06/09 00:05:38;;;;;;;1.03;0.83;;;19.50;65.70;;;;;;5091524;27;20520;-47
2022/06/09 00:08:20;;;;;;;3.57;1.53;;;19.50;65.70;;;;;;5066372;27;20540;-48
2022/06/09 00:11:06;;;;;;;1.60;1.07;;;19.50;65.60;;;;;;5071703;28;20539;-47
2022/06/09 00:13:48;;;;;;;2.60;1.10;;;19.50;65.60;;;;;;5060094;27;20540;-47
2022/06/09 00:16:28;;;;;;;1.00;0.80;;;19.50;65.60;;;;;;5104184;27;21110;-47
2022/06/09 00:19:11;;;;;;;2.23;1.00;;;19.50;65.60;;;;;;5105788;27;20882;-48
2022/06/09 00:21:52;;;;;;;1.87;1.00;;;19.50;65.60;;;;;;5103971;27;21007;-48
2022/06/09 00:24:32;;;;;;;1.10;1.00;;;19.50;65.40;;;;;;5106370;27;20583;-48
2022/06/09 00:27:13;;;;;;;1.10;1.00;;;19.50;65.40;;;;;;5102947;27;20615;-48
2022/06/09 00:29:54;;;;;;;4.57;1.10;;;19.50;65.40;;;;;;5125421;27;20581;-48
2022/06/09 00:32:34;;;;;;;1.63;0.80;;;19.50;65.50;;;;;;5112935;27;20534;-47
2022/06/09 00:35:15;;;;;;;1.30;1.10;;;19.50;65.50;;;;;;5107784;27;20590;-47
2022/06/09 00:37:55;;;;;;;1.23;1.13;;;19.50;65.50;;;;;;5092715;27;20538;-47
2022/06/09 00:40:36;;;;;;;1.47;0.90;;;19.50;65.60;;;;;;5086253;28;20529;-48
2022/06/09 00:43:16;;;;;;;1.30;0.90;;;19.50;65.40;;;;;;5065996;28;20542;-48
2022/06/09 00:46:06;;;;;;;1.40;0.83;;;19.50;65.50;;;;;;5084541;28;20588;-47
2022/06/09 00:48:50;;;;;;;1.63;0.90;;;19.50;65.40;;;;;;5052108;28;20956;-47
2022/06/09 00:51:38;;;;;;;1.17;0.90;;;19.40;65.40;;;;;;5117501;27;21074;-46
2022/06/09 00:54:23;;;;;;;1.60;1.10;;;19.50;65.50;;;;;;5101070;27;20596;-48
2022/06/09 00:57:09;;;;;;;2.70;1.10;;;19.50;65.40;;;;;;5118544;27;20547;-48
2022/06/09 00:59:53;;;;;;;1.63;0.97;;;19.40;65.30;;;;;;5125138;27;20530;-48
2022/06/09 01:02:34;;;;;;;1.40;1.30;;;19.40;65.30;;;;;;5064801;28;20545;-47
2022/06/09 01:05:18;;;;;;;1.93;0.93;;;19.40;65.30;;;;;;5087775;28;20581;-47
2022/06/09 01:08:02;;;;;;;3.10;1.20;;;19.40;65.20;;;;;;5071254;28;20555;-48
2022/06/09 01:10:42;;;;;;;1.20;1.10;;;19.40;65.20;;;;;;5128274;27;21060;-47
2022/06/09 01:13:22;;;;;;;1.27;0.97;;;19.40;65.30;;;;;;5045936;28;20554;-48
2022/06/09 01:16:09;;;;;;;1.33;0.93;;;19.40;65.20;;;;;;5126212;27;20536;-47
2022/06/09 01:18:59;;;;;;;1.60;0.83;;;19.40;65.30;;;;;;5065388;27;21137;-47
2022/06/09 01:22:06;;;;;;;1.07;0.87;;;19.40;65.30;;;;;;5075095;28;21092;-48
2022/06/09 01:25:15;;;;;;;2.20;1.20;;;19.40;65.40;;;;;;5081135;28;20538;-46
2022/06/09 01:28:25;;;;;;;2.00;1.30;;;19.40;65.20;;;;;;5052186;27;21215;-45
2022/06/09 01:31:14;;;;;;;2.70;1.10;;;19.40;65.20;;;;;;5105342;27;20585;-48
2022/06/09 01:34:03;;;;;;;1.20;0.80;;;19.40;65.30;;;;;;5055869;27;20599;-47
2022/06/09 01:36:48;;;;;;;1.60;0.80;;;19.40;65.30;;;;;;5088312;27;20523;-48
2022/06/09 01:39:42;;;;;;;2.77;1.10;;;19.40;65.40;;;;;;5075692;28;20545;-46
2022/06/09 01:42:26;;;;;;;2.70;1.10;;;19.40;65.40;;;;;;5110500;27;20885;-48
2022/06/09 01:45:11;;;;;;;2.93;0.77;;;19.40;65.40;;;;;;5086113;28;20588;-48
2022/06/09 01:47:56;;;;;;;4.37;1.30;;;19.30;65.30;;;;;;5067700;28;20549;-47
2022/06/09 01:50:40;;;;;;;2.10;1.20;;;19.40;65.40;;;;;;5068413;28;20583;-48
2022/06/09 01:53:26;;;;;;;2.20;1.43;;;19.30;65.20;;;;;;5085592;27;20950;-47
2022/06/09 01:56:10;;;;;;;3.13;1.10;;;19.30;65.20;;;;;;5128113;27;20531;-47
2022/06/09 01:58:54;;;;;;;1.53;1.07;;;19.30;65.20;;;;;;5077118;27;20601;-47
2022/06/09 02:01:39;;;;;;;3.17;1.40;;;19.30;65.20;;;;;;5105441;27;20586;-47
2022/06/09 02:04:24;;;;;;;4.20;1.83;;;19.30;65.20;;;;;;5087222;28;20936;-47
2022/06/09 02:07:09;;;;;;;2.17;1.63;;;19.30;65.30;;;;;;5119144;27;20597;-45
2022/06/09 02:09:50;;;;;;;1.40;1.20;;;19.30;65.30;;;;;;5126445;27;20531;-47
2022/06/09 02:12:30;;;;;;;4.07;1.23;;;19.30;65.20;;;;;;5067786;28;20612;-47
2022/06/09 02:15:21;;;;;;;3.80;1.00;;;19.30;65.20;;;;;;5083178;28;20541;-48
2022/06/09 02:18:08;;;;;;;4.10;1.17;;;19.30;65.20;;;;;;5069413;27;20607;-48
2022/06/09 02:20:54;;;;;;;2.47;1.30;;;19.30;65.40;;;;;;5128350;27;20599;-48
2022/06/09 02:23:36;;;;;;;1.37;1.10;;;19.30;65.40;;;;;;5086617;27;20547;-48
2022/06/09 02:26:16;;;;;;;2.87;1.10;;;19.30;65.50;;;;;;5128130;27;20516;-48
2022/06/09 02:28:57;;;;;;;3.47;1.27;;;19.30;65.40;;;;;;5067129;27;20547;-47
2022/06/09 02:31:37;;;;;;;1.33;1.20;;;19.30;65.40;;;;;;5124353;27;20520;-49
2022/06/09 02:34:17;;;;;;;3.27;1.40;;;19.30;65.40;;;;;;5127703;27;20571;-48
2022/06/09 02:36:58;;;;;;;2.53;1.50;;;19.30;65.50;;;;;;5126052;27;20571;-47
2022/06/09 02:39:38;;;;;;;2.23;1.20;;;19.30;65.50;;;;;;5099383;27;20585;-47
2022/06/09 02:42:18;;;;;;;2.33;1.23;;;19.20;65.40;;;;;;5072559;28;20953;-47
2022/06/09 02:44:58;;;;;;;2.60;1.30;;;19.20;65.50;;;;;;5085609;28;20534;-48
2022/06/09 02:47:39;;;;;;;2.60;1.37;;;19.20;65.50;;;;;;5101667;27;21410;-46
2022/06/09 02:50:19;;;;;;;1.40;1.30;;;19.20;65.60;;;;;;5128094;27;20519;-48
2022/06/09 02:53:00;;;;;;;1.60;1.47;;;19.20;65.60;;;;;;5062382;28;20595;-48
2022/06/09 02:55:42;;;;;;;1.60;1.27;;;19.20;65.60;;;;;;5084599;28;20964;-46
2022/06/09 02:58:23;;;;;;;2.17;1.40;;;19.20;65.60;;;;;;5090878;27;20969;-47
2022/06/09 03:01:05;;;;;;;2.30;1.47;;;19.20;65.70;;;;;;5084435;28;20534;-47
2022/06/09 03:03:46;;;;;;;0.80;0.80;;;19.20;65.60;;;;;;5035297;27;20545;-47
2022/06/09 03:06:27;;;;;;;4.30;1.20;;;19.20;65.60;;;;;;5127581;27;20587;-47
2022/06/09 03:09:07;;;;;;;2.37;1.70;;;19.20;65.60;;;;;;5060891;27;20547;-47
2022/06/09 03:11:47;;;;;;;2.33;1.43;;;19.20;65.70;;;;;;5074251;28;20529;-48
2022/06/09 03:14:27;;;;;;;4.07;1.90;;;19.20;65.60;;;;;;5084679;27;20537;-48
2022/06/09 03:17:08;;;;;;;1.73;1.50;;;19.20;65.60;;;;;;5118078;27;21020;-48
2022/06/09 03:19:50;;;;;;;2.80;1.00;;;19.10;65.50;;;;;;5116078;27;20592;-47
2022/06/09 03:22:30;;;;;;;2.80;1.47;;;19.20;65.60;;;;;;5078888;28;20602;-47
2022/06/09 03:25:11;;;;;;;2.30;1.50;;;19.10;65.60;;;;;;5107036;27;20588;-48
2022/06/09 03:27:53;;;;;;;3.03;1.60;;;19.10;65.50;;;;;;5067231;28;20546;-48
2022/06/09 03:30:34;;;;;;;2.33;1.10;;;19.10;65.60;;;;;;5185891;27;21055;-46
2022/06/09 03:33:15;;;;;;;2.00;1.57;;;19.10;65.50;;;;;;5049402;28;20591;-48
2022/06/09 03:35:55;;;;;;;2.63;1.67;;;19.10;65.60;;;;;;5129004;27;20521;-47
2022/06/09 03:38:35;;;;;;;2.17;1.43;;;19.10;65.50;;;;;;5068551;28;20549;-48
2022/06/09 03:41:14;;;;;;;2.20;1.33;;;19.10;65.60;;;;;;5083095;27;20551;-47
2022/06/09 03:43:54;;;;;;;2.00;1.40;;;19.10;65.60;;;;;;5070798;27;20544;-48
2022/06/09 03:46:35;;;;;;;1.63;1.53;;;19.10;65.60;;;;;;5126062;27;20614;-47
2022/06/09 03:49:15;;;;;;;3.87;1.90;;;19.10;65.60;;;;;;5073053;28;20587;-47
2022/06/09 03:51:55;;;;;;;5.70;1.60;;;19.10;65.60;;;;;;5082879;28;20522;-48
2022/06/09 03:54:35;;;;;;;5.50;1.47;;;19.10;65.60;;;;;;5085563;28;20598;-47
2022/06/09 03:57:15;;;;;;;4.77;2.20;;;19.10;65.60;;;;;;5074819;28;21024;-47
2022/06/09 03:59:56;;;;;;;3.53;1.63;;;19.10;65.60;;;;;;5098438;27;20582;-48
2022/06/09 04:02:36;;;;;;;3.13;1.20;;;19.10;65.60;;;;;;5060521;28;21110;-47
2022/06/09 04:05:16;;;;;;;4.90;1.77;;;19.10;65.70;;;;;;5128119;27;20524;-48
2022/06/09 04:07:56;;;;;;;2.33;1.33;;;19.10;65.60;;;;;;5057153;28;21073;-47
2022/06/09 04:10:37;;;;;;;2.50;1.60;;;19.10;65.60;;;;;;5087053;28;20521;-47
2022/06/09 04:13:19;;;;;;;2.17;1.33;;;19.10;65.70;;;;;;5095061;27;20600;-47
2022/06/09 04:15:59;;;;;;;2.47;1.50;;;19.10;65.70;;;;;;5092020;27;20533;-48
2022/06/09 04:18:40;;;;;;;3.53;1.80;;;19.10;65.60;;;;;;5065281;27;20562;-47
2022/06/09 04:21:22;;;;;;;4.43;2.00;;;19.10;65.70;;;;;;5087161;28;20518;-47
2022/06/09 04:24:04;;;;;;;4.20;1.87;;;19.00;65.50;;;;;;5064067;27;20666;-47
2022/06/09 04:26:45;;;;;;;2.43;2.17;;;19.10;65.60;;;;;;5086540;27;20864;-47
2022/06/09 04:29:28;;;;;;;3.97;1.47;;;19.00;65.60;;;;;;5074393;27;20615;-48
2022/06/09 04:32:09;;;;;;;3.53;1.83;;;19.00;65.60;;;;;;5077755;28;20599;-48
2022/06/09 04:34:50;;;;;;;3.00;1.70;;;19.00;65.50;;;;;;5086978;27;20534;-48
2022/06/09 04:40:24;;;;;;;3.37;2.03;;;19.00;65.70;;;;;;5118747;27;20533;-46
2022/06/09 04:43:08;;;;;;;3.63;2.20;;;19.00;65.60;;;;;;5064734;28;20675;-48
2022/06/09 04:45:50;;;;;;;2.87;1.63;;;19.00;66.80;;;;;;5094670;27;21042;-47
2022/06/09 04:48:36;;;;;;;1.77;1.63;;;19.00;65.60;;;;;;5039259;28;21110;-48
2022/06/09 04:51:18;;;;;;;5.50;2.30;;;19.00;65.50;;;;;;5087122;28;20589;-47
2022/06/09 04:53:59;;;;;;;2.17;1.97;;;19.00;65.60;;;;;;5102242;27;20601;-48
2022/06/09 04:56:40;;;;;;;3.00;1.50;;;19.00;65.70;;;;;;5075304;28;20575;-48
2022/06/09 04:59:22;;;;;;;2.33;1.70;;;19.00;65.70;;;;;;5105433;27;20522;-48
2022/06/09 05:02:04;;;;;;;4.00;2.40;;;19.00;65.60;;;;;;5121181;27;20684;-48
2022/06/09 05:04:45;;;;;;;2.80;2.10;;;19.00;65.70;;;;;;5088459;27;20581;-49
2022/06/09 05:07:27;;;;;;;2.53;1.87;;;19.00;65.70;;;;;;5104572;27;21045;-47
2022/06/09 05:10:09;;;;;;;3.00;1.90;;;19.00;65.70;;;;;;5091069;27;20572;-47
2022/06/09 05:12:49;;;;;;;3.03;1.60;;;19.00;65.70;;;;;;5069520;28;20584;-48
2022/06/09 05:15:29;;;;;;;3.60;1.80;;;18.90;65.70;;;;;;5085150;28;20581;-48
2022/06/09 05:18:11;;;;;;;4.57;1.90;;;19.00;65.70;;;;;;5088421;27;20544;-46
2022/06/09 05:20:53;;;;;;;3.20;1.90;;;18.90;65.80;;;;;;5087412;28;20528;-47
2022/06/09 05:23:33;;;;;;;2.00;1.80;;;18.90;65.80;;;;;;5061121;27;20602;-49
2022/06/09 05:26:16;;;;;;;2.20;1.80;;;18.90;65.90;;;;;;5086967;27;20932;-47
2022/06/09 05:28:58;;;;;;;4.70;2.13;;;18.90;65.80;;;;;;5054594;27;20605;-48
2022/06/09 05:31:38;;;;;;;2.63;1.80;;;18.90;65.90;;;;;;5076712;27;20590;-46
2022/06/09 05:34:18;;;;;;;3.33;1.93;;;18.90;65.80;;;;;;5087369;28;20581;-47
2022/06/09 05:36:58;;;;;;;4.20;2.50;;;18.90;65.80;;;;;;5084112;27;20520;-48
2022/06/09 05:45:55;;;;;;;3.23;2.00;;;18.90;65.90;;;;;;5125463;27;20528;-48
2022/06/09 05:48:36;;;;;;;3.97;2.00;;;18.90;65.90;;;;;;5092078;27;20589;-48
2022/06/09 05:51:31;;;;;;;2.70;2.20;;;18.90;66.10;;;;;;5087756;27;20570;-47
2022/06/09 05:54:21;;;;;;;2.13;1.93;;;18.90;66.30;;;;;;5108033;27;20502;-47
2022/06/09 05:57:15;;;;;;;3.90;1.77;;;18.90;66.20;;;;;;5121822;27;20560;-47
2022/06/09 06:00:07;;;;;;;6.10;2.60;;;18.90;66.30;;;;;;5105123;27;20575;-48
2022/06/09 06:03:27;;;;;;;4.13;2.50;;;18.90;66.10;;;;;;5107489;27;20604;-48
2022/06/09 06:06:36;;;;;;;5.00;2.23;;;18.90;66.10;;;;;;5068009;28;20945;-47
2022/06/09 06:09:23;;;;;;;3.67;2.60;;;18.90;66.00;;;;;;5084685;28;20593;-65
2022/06/09 06:12:08;;;;;;;3.50;2.60;;;18.90;66.10;;;;;;5084388;28;21050;-47
2022/06/09 06:15:02;;;;;;;4.43;2.10;;;18.90;66.10;;;;;;5086545;27;20527;-48
2022/06/09 06:17:45;;;;;;;2.37;2.17;;;18.90;66.00;;;;;;5051459;28;20641;-48
2022/06/09 06:20:48;;;;;;;5.07;2.43;;;18.90;65.90;;;;;;5128145;27;20591;-47
2022/06/09 06:23:53;;;;;;;3.17;2.83;;;18.90;66.30;;;;;;5073918;27;20932;-48
2022/06/09 06:26:35;;;;;;;2.37;1.87;;;18.90;66.00;;;;;;5127925;27;20529;-48
2022/06/09 06:29:22;;;;;;;3.57;2.00;;;18.90;66.10;;;;;;5070674;28;20541;-48
2022/06/09 06:32:04;;;;;;;3.97;3.07;;;18.90;66.20;;;;;;5084419;28;20524;-47
2022/06/09 06:34:45;;;;;;;2.90;2.60;;;18.90;66.20;;;;;;5103459;27;20602;-46
2022/06/09 06:37:25;;;;;;;4.73;2.73;;;18.90;66.00;;;;;;5106775;27;20926;-48
2022/06/09 06:40:07;;;;;;;3.40;3.10;;;18.90;66.20;;;;;;5087636;28;20524;-46
2022/06/09 06:42:47;;;;;;;8.63;3.00;;;18.80;66.20;;;;;;5109676;27;20544;-47
2022/06/09 06:45:27;;;;;;;4.43;2.70;;;18.90;66.30;;;;;;5126199;27;20592;-47
2022/06/09 06:48:09;;;;;;;3.57;2.77;;;18.90;66.30;;;;;;5093543;27;20542;-47
2022/06/09 06:51:03;;;;;;;6.27;2.73;;;18.90;66.40;;;;;;5089458;28;20512;-48
2022/06/09 06:54:14;;;;;;;3.20;2.43;;;18.90;66.50;;;;;;5047399;28;20597;-47
2022/06/09 06:56:54;;;;;;;3.77;2.60;;;18.90;66.50;;;;;;5106496;27;20607;-47
2022/06/09 06:59:38;;;;;;;6.60;3.13;;;18.90;66.30;;;;;;5116250;27;20581;-45
2022/06/09 07:02:18;;;;;;;2.43;2.23;;;18.90;66.30;;;;;;5111630;27;1416012;-48
2022/06/09 07:05:20;;;;;;;4.43;2.90;;;18.90;66.30;;;;;;5086888;28;20523;-47
2022/06/09 07:18:03;;;;;;;3.87;2.37;;;18.90;66.50;;;;;;5119295;27;20304;-47
2022/06/09 07:21:42;;;;;;;2.80;2.37;;;18.90;66.40;;;;;;5062881;28;20422;-47
2022/06/09 07:24:27;;;;;;;2.80;2.50;;;18.90;66.30;;;;;;5126169;27;20605;-47
2022/06/09 07:27:09;;;;;;;6.20;2.50;;;18.80;66.20;;;;;;5063656;28;20540;-48
2022/06/09 07:29:52;;;;;;;5.60;2.60;;;18.90;66.30;;;;;;5084019;27;20531;-47
2022/06/09 07:32:35;;;;;;;4.53;2.40;;;18.90;66.20;;;;;;5069082;27;21170;-47
2022/06/09 07:35:20;;;;;;;2.70;2.50;;;18.90;66.30;;;;;;5117606;27;21153;-46
2022/06/09 07:38:10;;;;;;;4.10;2.77;;;18.80;66.10;;;;;;5032320;28;21180;-48
2022/06/09 07:40:51;;;;;;;4.00;2.97;;;18.90;66.20;;;;;;5127671;27;21096;-47
2022/06/09 07:44:06;;;;;;;5.40;2.70;;;18.90;66.30;;;;;;4227813;27;25212663;-48
2022/06/09 07:46:51;;;;;;;3.40;2.70;;;18.90;66.20;;;;;;5127689;27;21063;-47
2022/06/09 07:49:35;;;;;;;3.80;2.80;;;18.90;66.10;;;;;;5109474;27;20576;-47
2022/06/09 07:52:18;;;;;;;3.83;2.43;;;18.90;66.20;;;;;;5114434;27;20594;-47
2022/06/09 07:55:05;;;;;;;2.87;2.43;;;18.90;66.10;;;;;;5093345;27;20977;-47
2022/06/09 07:57:52;;;;;;;2.70;2.50;;;18.90;66.20;;;;;;5137576;27;21289;-47
2022/06/09 08:00:34;;;;;;;3.07;2.40;;;18.90;66.20;;;;;;5127208;27;20560;-48
2022/06/09 08:03:18;;;;;;;3.83;2.70;;;18.90;66.10;;;;;;5051661;28;20962;-48
2022/06/09 08:06:01;;;;;;;3.80;2.70;;;18.90;66.10;;;;;;5127504;27;20392;-48
2022/06/09 08:09:04;;;;;;;3.00;2.80;;;18.90;66.10;;;;;;5125277;27;20557;-47
2022/06/09 08:11:47;;;;;;;5.47;2.60;;;18.90;66.10;;;;;;5097130;27;20603;-48
2022/06/09 08:14:30;;;;;;;3.03;2.80;;;18.80;65.90;;;;;;5105405;27;21074;-48
2022/06/09 08:17:14;;;;;;;3.90;2.50;;;18.80;65.90;;;;;;5100149;27;20553;-47
2022/06/09 08:19:56;;;;;;;2.60;2.37;;;18.90;65.90;;;;;;5087489;27;20547;-47
2022/06/09 08:22:40;;;;;;;3.23;2.80;;;18.80;65.90;;;;;;5065732;27;20587;-47
2022/06/09 08:25:22;;;;;;;2.87;2.53;;;18.80;65.90;;;;;;5104402;27;20590;-48
2022/06/09 08:28:05;;;;;;;3.47;2.57;;;18.80;65.80;;;;;;5090528;27;20680;-47
2022/06/09 08:30:51;;;;;;;3.13;2.50;;;18.80;65.80;;;;;;5112299;27;20583;-48
2022/06/09 08:33:33;;;;;;;3.83;3.40;;;18.80;65.90;;;;;;5072020;27;20588;-47
2022/06/09 08:36:15;;;;;;;3.70;2.70;;;18.80;67.20;;;;;;5118883;27;20578;-47
2022/06/09 08:47:55;;;;;;;5.80;3.13;;;18.80;66.20;;;;;;5060474;28;20524;-47
2022/06/09 08:51:03;;;;;;;3.50;3.10;;;18.80;66.20;;;;;;5095362;27;20519;-47
2022/06/09 08:54:16;;;;;;;3.20;2.87;;;18.80;66.20;;;;;;5051284;27;20564;-47
2022/06/09 08:57:04;;;;;;;3.57;2.50;;;18.70;66.20;;;;;;5124137;27;20510;-48
2022/06/09 09:00:22;;;;;;;4.93;2.73;;;18.80;66.30;;;;;;5061755;27;2885938;-48
2022/06/09 09:03:40;;;;;;;6.70;3.47;;;18.70;66.20;;;;;;5045292;28;20536;-47
2022/06/09 09:06:27;;;;;;;2.67;2.47;;;18.70;66.30;;;;;;5087438;27;20567;-67
2022/06/09 09:09:57;;;;;;;4.33;3.50;;;18.70;66.20;;;;;;5066093;27;20548;-46
2022/06/09 09:18:04;;;;;;;3.53;2.83;;;18.70;66.20;;;;;;5121520;27;20964;-47
2022/06/09 09:28:51;;;;;;;2.93;2.10;;;18.70;66.00;;;;;;5068005;27;20611;-47
2022/06/09 09:32:26;;;;;;;2.60;2.40;;;18.70;65.90;;;;;;5091242;27;20512;-48
2022/06/09 09:45:42;;;;;;;3.20;2.90;;;18.70;66.00;;;;;;6308830;22;20255;-47
2022/06/09 09:48:34;;;;;;;2.47;2.27;;;18.70;66.00;;;;;;5059993;27;20566;-48
2022/06/09 09:55:31;;;;;;;4.10;2.67;;;18.70;66.20;;;;;;5085589;28;20495;-48
2022/06/09 09:58:26;;;;;;;2.83;2.30;;;18.70;66.20;;;;;;5124734;27;20572;-48
2022/06/09 10:08:35;;;;;;;2.50;2.30;;;18.70;66.10;;;;;;5085432;28;20613;-47
2022/06/09 10:14:45;;;;;;;3.00;2.60;;;18.70;65.90;;;;;;5090892;27;20621;-46
2022/06/09 10:18:02;;;;;;;3.40;2.50;;;18.70;65.90;;;;;;5096244;27;20548;-47
2022/06/09 10:21:11;;;;;;;3.53;2.47;;;18.70;65.90;;;;;;5109824;27;20524;-48
2022/06/09 10:24:02;;;;;;;3.53;2.40;;;18.70;65.90;;;;;;5080708;27;20433;-47
2022/06/09 10:26:44;;;;;;;5.80;2.40;;;18.70;65.90;;;;;;5086110;28;20897;-48
2022/06/09 10:29:36;;;;;;;3.25;2.95;;;18.70;65.90;;;;;;5111175;27;20818;-47
2022/06/09 10:32:41;;;;;;;4.83;3.57;;;18.70;66.40;;;;;;5084043;27;20567;-47
2022/06/09 10:35:31;;;;;;;4.87;3.40;;;18.70;66.40;;;;;;5149282;27;20550;-48
2022/06/09 10:38:25;;;;;;;3.73;2.97;;;18.70;66.30;;;;;;5062215;27;20576;-48
2022/06/09 10:41:17;;;;;;;2.80;2.60;;;18.70;66.10;;;;;;5135127;27;20860;-46
2022/06/09 10:44:05;;;;;;;3.83;2.73;;;18.70;66.10;;;;;;5108961;27;20564;-47
2022/06/09 10:55:14;;;;;;;4.73;2.90;;;18.70;66.10;;;;;;5087220;27;20615;-47
2022/06/09 10:56:27;;;;;;;4.00;3.30;;;18.80;66.10;;;;;;5136730;27;20278;-47
2022/06/09 10:59:14;;;;;;;3.43;2.83;;;18.70;66.00;;;;;;5049348;27;20551;-54
2022/06/09 11:01:56;;;;;;;5.63;3.27;;;18.80;66.10;;;;;;5087726;27;20626;-48
2022/06/09 11:04:47;;;;;;;3.40;3.10;;;18.80;65.90;;;;;;5132894;27;20769;-47
2022/06/09 11:07:48;;;;;;;3.17;2.97;;;18.80;65.90;;;;;;5095471;27;20577;-47
2022/06/09 11:10:41;;;;;;;3.10;2.90;;;18.80;65.90;;;;;;5107507;27;20544;-46
2022/06/09 11:13:45;;;;;;;4.73;2.80;;;18.80;65.90;;;;;;5108677;27;20660;-49
2022/06/09 11:16:38;;;;;;;3.00;2.77;;;18.80;65.90;;;;;;5066314;28;20564;-46
2022/06/09 11:19:44;;;;;;;3.17;2.70;;;18.80;65.90;;;;;;5105098;27;21263;-47
2022/06/09 11:22:39;;;;;;;4.27;3.20;;;18.80;65.90;;;;;;5077908;27;20694;-48
2022/06/09 11:25:38;;;;;;;3.13;2.93;;;18.80;66.10;;;;;;5139332;27;20825;-48
2022/06/09 11:28:41;;;;;;;3.20;2.90;;;18.80;65.90;;;;;;5115264;27;20571;-47
2022/06/09 11:31:44;;;;;;;3.60;3.30;;;18.80;65.90;;;;;;5087007;28;20583;-67
2022/06/09 11:34:51;;;;;;;4.50;3.10;;;18.80;65.90;;;;;;5105274;27;20939;-46
2022/06/09 11:37:59;;;;;;;4.70;2.77;;;18.80;65.90;;;;;;5062555;28;20304;-48
2022/06/09 11:40:47;;;;;;;4.80;3.00;;;18.80;65.80;;;;;;5066802;27;20907;-47
2022/06/09 11:43:47;;;;;;;4.37;2.77;;;18.80;65.80;;;;;;5101001;27;20965;-47
2022/06/09 11:46:34;;;;;;;4.20;3.20;;;18.80;65.70;;;;;;5086123;27;20527;-47
2022/06/09 11:49:22;;;;;;;3.80;3.50;;;18.80;65.70;;;;;;5067010;27;20861;-47
2022/06/09 11:52:07;;;;;;;5.87;3.00;;;18.80;65.80;;;;;;5103863;27;20670;-47
2022/06/09 11:55:02;;;;;;;3.10;2.70;;;18.90;65.90;;;;;;5109471;27;20576;-47
2022/06/09 11:57:51;;;;;;;3.70;3.00;;;18.90;65.80;;;;;;5144188;27;20576;-48
2022/06/09 12:00:40;;;;;;;3.50;2.60;;;18.80;65.70;;;;;;5168559;27;20556;-48
2022/06/09 12:03:58;;;;;;;3.00;2.80;;;18.80;65.80;;;;;;5064731;27;21102;-48
2022/06/09 12:07:03;;;;;;;4.97;2.90;;;18.80;65.70;;;;;;5097699;27;20520;-47
2022/06/09 12:09:58;;;;;;;3.07;2.77;;;18.90;65.70;;;;;;5122466;27;20491;-47
2022/06/09 12:12:44;;;;;;;3.10;2.90;;;18.90;65.60;;;;;;5067925;28;20548;-67
2022/06/09 12:15:32;;;;;;;2.57;2.37;;;18.90;65.60;;;;;;5148793;27;20543;-47
2022/06/09 12:18:34;;;;;;;2.80;2.60;;;18.90;65.60;;;;;;5070221;27;20592;-46
2022/06/09 12:21:29;;;;;;;7.50;3.33;;;18.90;65.70;;;;;;5128655;27;20607;-48
2022/06/09 12:24:35;;;;;;;2.77;2.47;;;18.80;65.50;;;;;;5102068;27;20575;-47
2022/06/09 12:27:45;;;;;;;3.03;2.73;;;18.80;65.60;;;;;;5083302;27;20596;-49
2022/06/09 12:30:35;;;;;;;4.00;2.97;;;18.90;65.60;;;;;;5125405;27;21165;-48
2022/06/09 12:33:27;;;;;;;2.73;2.50;;;18.90;65.60;;;;;;5093090;27;20541;-47
2022/06/09 12:36:12;;;;;;;2.73;2.47;;;18.90;65.70;;;;;;5088239;27;21006;-47
2022/06/09 12:39:00;;;;;;;2.47;2.27;;;18.90;65.60;;;;;;5054217;28;20559;-47
2022/06/09 12:42:02;;;;;;;3.20;3.00;;;18.90;65.60;;;;;;5153022;27;20532;-48
2022/06/09 12:44:52;;;;;;;2.67;2.47;;;18.90;65.60;;;;;;5125305;27;20838;-47
2022/06/09 12:47:57;;;;;;;2.80;2.60;;;18.90;65.70;;;;;;5105501;27;20574;-46
2022/06/09 12:51:04;;;;;;;4.30;3.30;;;18.90;65.60;;;;;;5135507;27;20484;-47
2022/06/09 12:53:58;;;;;;;3.07;2.77;;;18.90;65.70;;;;;;4242495;27;25424276;-47
2022/06/09 12:56:45;;;;;;;2.73;2.53;;;18.90;65.70;;;;;;5128913;27;20588;-48
2022/06/09 12:59:35;;;;;;;3.60;3.30;;;18.90;65.70;;;;;;5083203;27;20638;-47
2022/06/09 13:02:33;;;;;;;3.57;2.70;;;18.90;65.70;;;;;;5112530;27;20645;-48
2022/06/09 13:05:24;;;;;;;2.80;2.60;;;18.90;65.70;;;;;;5068698;28;20585;-48
2022/06/09 13:08:20;;;;;;;4.10;3.00;;;18.80;65.70;;;;;;4594094;27;15583012;-47
2022/06/09 13:12:50;;;;;;;2.87;2.67;;;18.80;65.70;;;;;;5130074;27;20503;-67
2022/06/09 13:14:27;;;;;;;3.50;3.30;;;18.90;65.80;;;;;;5084886;28;20543;-47
2022/06/09 13:17:15;;;;;;;3.40;2.67;;;18.80;65.70;;;;;;5087408;27;21090;-48
2022/06/09 13:20:05;;;;;;;2.80;2.60;;;18.90;65.90;;;;;;5144304;27;20473;-47
2022/06/09 13:22:49;;;;;;;2.83;2.63;;;18.90;65.80;;;;;;5100292;27;20557;-48
2022/06/09 13:25:33;;;;;;;2.70;2.50;;;18.80;65.90;;;;;;5088134;27;20546;-47
2022/06/09 13:28:52;;;;;;;4.40;3.30;;;18.90;65.90;;;;;;5072131;27;20551;-48
2022/06/09 13:31:38;;;;;;;3.33;3.13;;;18.90;65.90;;;;;;5089428;27;20984;-47
2022/06/09 13:34:48;;;;;;;2.97;2.77;;;18.90;66.00;;;;;;5135371;27;20662;-48
2022/06/09 13:37:41;;;;;;;3.30;3.10;;;18.90;66.10;;;;;;5117040;27;20564;-47
2022/06/09 13:40:22;;;;;;;2.60;2.40;;;18.90;66.00;;;;;;5126738;27;20554;-46
2022/06/09 13:43:06;;;;;;;3.83;2.50;;;18.90;65.90;;;;;;5107918;27;20563;-48
2022/06/09 13:46:02;;;;;;;4.83;2.80;;;18.90;66.00;;;;;;5126324;27;20554;-47
2022/06/09 13:48:56;;;;;;;2.87;2.67;;;18.90;66.00;;;;;;5040417;27;20595;-47
2022/06/09 13:51:56;;;;;;;2.90;2.70;;;18.90;65.90;;;;;;5087199;27;20586;-46
2022/06/09 13:54:48;;;;;;;2.90;2.70;;;18.90;65.90;;;;;;5121246;27;20599;-47
2022/06/09 13:57:36;;;;;;;3.20;2.90;;;18.80;65.80;;;;;;5125941;27;20587;-48
2022/06/09 14:00:27;;;;;;;2.70;2.50;;;18.90;65.90;;;;;;5086656;27;20558;-46
2022/06/09 14:03:17;;;;;;;3.03;2.70;;;18.90;66.00;;;;;;5078274;27;20542;-47
2022/06/09 14:06:09;;;;;;;2.30;2.10;;;18.90;65.90;;;;;;5138026;27;20577;-47
2022/06/09 14:08:54;;;;;;;2.87;2.67;;;18.90;65.90;;;;;;5101428;27;20717;-46
2022/06/09 14:11:37;;;;;;;3.70;2.70;;;18.90;65.90;;;;;;5115745;27;20940;-47
2022/06/09 14:14:42;;;;;;;2.53;2.33;;;18.90;65.90;;;;;;5065167;28;20635;-45
2022/06/09 14:17:28;;;;;;;2.40;2.30;;;18.90;66.00;;;;;;5066259;28;20655;-47
2022/06/09 14:20:15;;;;;;;2.20;2.10;;;18.90;65.90;;;;;;5087854;27;20560;-47
2022/06/09 14:22:59;;;;;;;2.80;2.40;;;18.80;65.70;;;;;;5072654;27;20603;-47
2022/06/09 14:25:40;;;;;;;2.73;2.53;;;18.90;65.90;;;;;;5089175;27;21045;-67
2022/06/09 14:28:24;;;;;;;2.90;2.40;;;18.90;65.90;;;;;;5082236;27;20579;-46
2022/06/09 14:31:07;;;;;;;2.93;2.73;;;18.90;65.90;;;;;;5126456;27;20541;-47
2022/06/09 14:33:48;;;;;;;2.53;2.33;;;18.90;65.90;;;;;;5060210;27;20560;-47
2022/06/09 14:36:31;;;;;;;2.77;2.57;;;18.90;67.20;;;;;;5146879;27;20468;-47
2022/06/09 14:39:25;;;;;;;1.93;1.83;;;18.90;66.00;;;;;;5070371;27;20907;-47
2022/06/09 14:42:12;;;;;;;3.17;2.93;;;18.90;66.00;;;;;;5083592;27;20533;-48
2022/06/09 14:45:08;;;;;;;2.17;1.97;;;18.90;66.00;;;;;;5085338;27;20559;-47
2022/06/09 14:47:49;;;;;;;3.40;2.60;;;18.90;66.10;;;;;;5035991;28;20545;-47
2022/06/09 14:50:32;;;;;;;2.40;2.30;;;18.90;65.90;;;;;;5150459;27;20519;-47
2022/06/09 14:53:16;;;;;;;3.83;2.70;;;18.90;65.90;;;;;;5126620;27;20620;-47
2022/06/09 14:56:00;;;;;;;2.27;2.17;;;18.90;65.90;;;;;;5106652;27;20628;-47
2022/06/09 14:58:42;;;;;;;2.73;2.50;;;18.90;65.90;;;;;;5069523;27;20644;-47
2022/06/09 15:01:25;;;;;;;2.40;2.20;;;18.90;65.90;;;;;;5136115;27;20317;-47
2022/06/09 15:04:07;;;;;;;4.67;2.23;;;18.90;65.80;;;;;;5102285;27;20610;-48
2022/06/09 15:06:49;;;;;;;3.37;2.27;;;18.90;65.70;;;;;;5081649;27;20554;-47
2022/06/09 15:09:32;;;;;;;2.43;2.23;;;18.90;65.60;;;;;;5077283;27;20661;-48
2022/06/09 15:12:17;;;;;;;2.40;2.20;;;18.90;65.50;;;;;;5085778;27;20558;-48
2022/06/09 15:14:57;;;;;;;3.27;2.97;;;18.90;65.50;;;;;;5131962;27;20654;-47
2022/06/09 15:17:38;;;;;;;2.27;2.17;;;19.00;65.60;;;;;;5101462;27;20541;-47
2022/06/09 15:20:23;;;;;;;3.23;2.57;;;18.90;65.50;;;;;;5128486;27;20572;-47
2022/06/09 15:23:08;;;;;;;2.60;2.40;;;19.00;65.50;;;;;;5091368;27;20628;-47
2022/06/09 15:25:49;;;;;;;3.47;2.87;;;19.00;65.40;;;;;;5086646;28;21178;-48
2022/06/09 15:28:37;;;;;;;2.57;2.47;;;19.00;65.40;;;;;;5060703;28;20552;-47
2022/06/09 15:31:19;;;;;;;3.13;2.80;;;19.00;65.50;;;;;;5176068;27;20553;-48
2022/06/09 15:34:00;;;;;;;2.43;2.23;;;19.00;65.40;;;;;;5069696;27;20576;-46
2022/06/09 15:36:43;;;;;;;2.40;2.27;;;19.00;65.30;;;;;;5058786;28;20270;-48
2022/06/09 15:39:24;;;;;;;2.53;2.43;;;19.00;65.30;;;;;;5077191;27;20547;-47
2022/06/09 15:42:07;;;;;;;3.17;2.97;;;19.00;65.30;;;;;;5085712;27;20527;-47
2022/06/09 15:44:49;;;;;;;2.40;2.30;;;19.00;65.40;;;;;;5085738;28;20551;-47